Time;durP1;ratioP1;P1;durP2;ratioP2;P2;SDS_P1;SDS_P2;PMS_P1;PMS_P2;Temp;Humidity;BMP_temperature;BMP_pressure;BME280_temperature;BME280_humidity;BME280_pressure;Samples;Min_cycle;Max_cycle;Signal;HPM_P1;HPM_P2
2021/12/03 00:01:11;;;;;;;34.72;18.75;;;;;;;1.03;72.34;99393.19;5107781;28;20047;-20
2021/12/03 00:03:36;;;;;;;31.15;19.00;;;;;;;0.90;73.10;99413.91;5107870;28;20036;-21
2021/12/03 00:06:02;;;;;;;35.50;21.55;;;;;;;1.52;71.65;99387.59;5107686;28;20476;-20
2021/12/03 00:08:27;;;;;;;31.33;19.10;;;;;;;1.71;70.09;99359.97;5089681;28;20019;-20
2021/12/03 00:10:55;;;;;;;38.83;19.52;;;;;;;1.81;70.57;99386.00;5108104;28;20019;-20
2021/12/03 00:13:21;;;;;;;49.38;24.60;;;;;;;1.68;70.88;99386.63;5089682;28;20753;-20
2021/12/03 00:15:49;;;;;;;35.65;21.40;;;;;;;1.71;70.89;99388.09;5089275;28;20038;-20
2021/12/03 00:18:14;;;;;;;38.17;20.23;;;;;;;1.51;71.23;99396.47;5107645;28;20084;-20
2021/12/03 00:20:40;;;;;;;31.88;18.13;;;;;;;1.68;70.32;99401.59;5110512;28;20035;-20
2021/12/03 00:23:05;;;;;;;33.85;19.25;;;;;;;1.39;71.69;99419.72;5111612;28;20027;-20
2021/12/03 00:25:31;;;;;;;31.13;18.95;;;;;;;0.28;75.33;99410.22;5111521;28;20059;-20
2021/12/03 00:27:56;;;;;;;33.15;19.20;;;;;;;0.56;75.84;99401.94;5111807;28;20031;-21
2021/12/03 00:30:22;;;;;;;32.30;19.45;;;;;;;0.67;74.62;99398.94;5111577;28;20035;-21
2021/12/03 00:32:48;;;;;;;32.33;19.45;;;;;;;0.36;75.54;99410.22;5111512;28;20035;-20
2021/12/03 00:35:14;;;;;;;34.08;19.48;;;;;;;0.38;75.85;99431.03;5110993;28;20070;-20
2021/12/03 00:37:39;;;;;;;34.65;19.48;;;;;;;0.37;74.70;99455.63;5111622;28;20483;-20
2021/12/03 00:40:08;;;;;;;29.42;17.70;;;;;;;1.04;72.37;99454.38;5093191;28;20055;-21
2021/12/03 00:42:34;;;;;;;30.08;18.30;;;;;;;0.65;74.06;99429.78;5110930;28;20050;-20
2021/12/03 00:44:59;;;;;;;29.80;17.98;;;;;;;0.66;74.46;99434.06;5111015;28;20027;-21
2021/12/03 00:47:25;;;;;;;34.35;19.98;;;;;;;0.56;74.40;99436.06;5111423;28;20380;-21
2021/12/03 00:49:50;;;;;;;32.80;18.92;;;;;;;0.37;75.25;99409.25;5111097;28;20803;-21
2021/12/03 00:52:16;;;;;;;41.05;21.50;;;;;;;0.59;76.30;99422.59;5111116;28;20092;-21
2021/12/03 00:54:41;;;;;;;37.80;20.90;;;;;;;0.63;75.38;99418.63;5111037;28;20118;-20
2021/12/03 00:57:07;;;;;;;42.22;22.77;;;;;;;1.07;75.11;99420.72;5110624;28;20042;-20
2021/12/03 00:59:33;;;;;;;45.85;25.08;;;;;;;1.04;74.51;99400.06;5111043;28;20063;-20
2021/12/03 01:01:58;;;;;;;43.65;25.05;;;;;;;0.70;75.38;99393.38;5092791;28;20093;-20
2021/12/03 01:04:23;;;;;;;41.03;25.08;;;;;;;0.93;75.01;99398.66;5110860;28;20031;-20
2021/12/03 01:06:49;;;;;;;46.15;24.67;;;;;;;0.90;74.45;99398.16;5110974;28;20092;-20
2021/12/03 01:09:15;;;;;;;49.08;27.45;;;;;;;1.49;72.64;99395.84;5110387;28;20069;-20
2021/12/03 01:11:40;;;;;;;62.53;34.75;;;;;;;1.01;74.37;99403.03;5110582;28;20027;-21
2021/12/03 01:14:06;;;;;;;54.53;31.05;;;;;;;0.92;73.93;99381.28;5110654;28;20034;-20
2021/12/03 01:16:31;;;;;;;51.85;28.58;;;;;;;1.18;73.51;99375.66;5110614;28;20074;-21
2021/12/03 01:18:57;;;;;;;48.83;27.50;;;;;;;0.48;75.80;99373.94;5092450;28;20474;-21
2021/12/03 01:21:23;;;;;;;41.22;24.55;;;;;;;0.51;75.89;99370.16;5110432;28;20031;-21
2021/12/03 01:23:49;;;;;;;46.67;24.08;;;;;;;0.09;76.78;99373.91;5110723;28;20470;-20
2021/12/03 01:26:14;;;;;;;41.05;23.38;;;;;;;0.26;76.21;99380.72;5110492;28;20027;-20
2021/12/03 01:28:40;;;;;;;45.72;24.38;;;;;;;0.27;76.23;99377.16;5110071;28;20030;-20
2021/12/03 01:31:05;;;;;;;39.25;22.60;;;;;;;0.51;75.35;99373.63;5091640;28;20078;-20
2021/12/03 01:33:31;;;;;;;38.53;22.40;;;;;;;0.36;74.95;99393.66;5110346;28;20525;-20
2021/12/03 01:35:57;;;;;;;44.03;23.88;;;;;;;0.36;76.29;99396.28;5110093;28;20035;-20
2021/12/03 01:38:22;;;;;;;43.42;23.65;;;;;;;0.70;75.33;99382.88;5110091;28;20464;-20
2021/12/03 01:40:48;;;;;;;50.13;25.58;;;;;;;1.39;71.91;99392.63;5110016;28;20042;-21
2021/12/03 01:43:20;;;;;;;49.80;27.60;;;;;;;0.78;73.32;99374.13;5109777;28;20480;-21
2021/12/03 01:45:46;;;;;;;46.88;26.85;;;;;;;1.08;73.13;99377.72;5109972;28;20051;-20
2021/12/03 01:48:11;;;;;;;48.30;26.95;;;;;;;1.48;71.81;99381.03;5109787;28;20111;-21
2021/12/03 01:50:39;;;;;;;45.70;25.45;;;;;;;1.12;72.73;99407.88;5109866;28;20171;-20
2021/12/03 01:53:05;;;;;;;44.33;26.67;;;;;;;0.57;74.97;99385.22;5109873;28;20023;-20
2021/12/03 01:55:30;;;;;;;45.75;25.55;;;;;;;0.67;75.99;99362.19;5091248;28;20416;-20
2021/12/03 01:57:56;;;;;;;46.08;26.45;;;;;;;0.59;76.06;99367.50;5109871;28;20082;-21
2021/12/03 02:00:26;;;;;;;54.33;29.85;;;;;;;0.47;76.86;99398.56;5091416;28;20088;-20
2021/12/03 02:02:51;;;;;;;43.83;25.73;;;;;;;0.02;77.64;99367.69;5109611;28;20027;-21
2021/12/03 02:05:17;;;;;;;44.20;24.65;;;;;;;0.28;75.77;99365.66;5090976;28;20408;-20
2021/12/03 02:07:43;;;;;;;52.95;29.10;;;;;;;0.05;76.46;99330.69;5091453;28;20039;-20
2021/12/03 02:10:09;;;;;;;43.08;25.30;;;;;;;0.16;77.09;99359.13;5109399;28;20028;-20
2021/12/03 02:12:34;;;;;;;51.35;29.50;;;;;;;-0.02;77.09;99341.84;5091233;28;20047;-20
2021/12/03 02:15:00;;;;;;;46.42;27.88;;;;;;;0.28;77.07;99336.81;5109304;28;20392;-21
2021/12/03 02:17:25;;;;;;;48.70;27.65;;;;;;;0.54;76.29;99362.75;5090909;28;20039;-20
2021/12/03 02:19:50;;;;;;;50.63;28.00;;;;;;;0.64;76.10;99341.56;5109436;28;20084;-21
2021/12/03 02:22:16;;;;;;;46.20;27.20;;;;;;;0.85;75.47;99337.50;5109279;28;20044;-21
2021/12/03 02:24:42;;;;;;;41.35;25.88;;;;;;;0.90;73.99;99298.41;5074212;28;20031;-20
2021/12/03 02:27:07;;;;;;;46.35;26.23;;;;;;;0.82;76.48;99316.84;5109103;28;20036;-20
2021/12/03 02:29:33;;;;;;;42.03;25.25;;;;;;;0.45;76.90;99316.59;5109449;28;20111;-20
2021/12/03 02:31:58;;;;;;;43.00;25.40;;;;;;;0.90;75.85;99319.41;5108899;28;20039;-20
2021/12/03 02:34:23;;;;;;;41.78;24.23;;;;;;;0.60;75.75;99316.66;5109268;28;20024;-20
2021/12/03 02:36:49;;;;;;;44.00;23.77;;;;;;;1.14;74.85;99342.88;5108805;28;20092;-20
2021/12/03 02:39:14;;;;;;;44.00;23.30;;;;;;;1.20;74.05;99315.09;5109201;28;20059;-21
2021/12/03 02:41:40;;;;;;;38.60;21.60;;;;;;;1.83;71.82;99347.22;5108641;28;20031;-21
2021/12/03 02:44:05;;;;;;;38.47;21.65;;;;;;;1.19;74.31;99348.44;5108573;28;20507;-20
2021/12/03 02:46:31;;;;;;;36.28;20.83;;;;;;;1.03;74.49;99353.81;5108699;28;20020;-20
2021/12/03 02:48:56;;;;;;;37.17;21.77;;;;;;;1.22;73.81;99328.06;5108790;28;20027;-20
2021/12/03 02:51:22;;;;;;;37.33;20.33;;;;;;;1.33;73.40;99346.84;5108506;28;20442;-21
2021/12/03 02:53:47;;;;;;;52.83;28.55;;;;;;;1.38;73.14;99362.06;5108887;28;20032;-20
2021/12/03 02:56:12;;;;;;;39.25;22.67;;;;;;;1.46;72.68;99348.06;5108902;28;20042;-21
2021/12/03 02:58:38;;;;;;;39.67;23.13;;;;;;;1.41;72.27;99343.34;5108982;28;20088;-20
2021/12/03 03:01:05;;;;;;;39.53;23.38;;;;;;;1.55;72.66;99337.31;5108648;28;20036;-20
2021/12/03 03:03:31;;;;;;;43.33;24.88;;;;;;;1.21;74.24;99364.03;5108444;28;20031;-20
2021/12/03 03:05:58;;;;;;;37.90;22.38;;;;;;;1.07;75.66;99365.59;5108625;28;20104;-20
2021/12/03 03:08:23;;;;;;;36.45;21.48;;;;;;;1.24;74.85;99357.59;5089993;28;20071;-20
2021/12/03 03:10:50;;;;;;;39.53;22.73;;;;;;;1.30;74.49;99359.50;5108630;28;20484;-20
2021/12/03 03:13:15;;;;;;;42.28;23.58;;;;;;;1.46;74.43;99359.38;5090132;28;20478;-21
2021/12/03 03:15:41;;;;;;;44.10;25.08;;;;;;;1.23;75.07;99375.16;5108311;28;20502;-20
2021/12/03 03:18:17;;;;;;;38.75;22.77;;;;;;;1.40;73.46;99325.94;5090277;28;20391;-20
2021/12/03 03:20:43;;;;;;;38.97;23.10;;;;;;;1.02;74.86;99343.47;5090077;28;20506;-21
2021/12/03 03:23:09;;;;;;;42.20;23.45;;;;;;;1.52;74.32;99363.94;5089915;28;20034;-20
2021/12/03 03:25:35;;;;;;;42.47;22.60;;;;;;;1.72;73.18;99366.88;5090437;28;20805;-20
2021/12/03 03:28:00;;;;;;;41.08;23.73;;;;;;;1.19;74.35;99352.88;5108078;28;20028;-21
2021/12/03 03:30:26;;;;;;;40.22;23.25;;;;;;;1.17;74.31;99358.28;5089835;28;20034;-20
2021/12/03 03:32:51;;;;;;;43.45;24.40;;;;;;;1.54;73.65;99363.75;5108320;28;20475;-20
2021/12/03 03:35:17;;;;;;;45.72;26.55;;;;;;;1.42;73.97;99329.19;5072705;28;20039;-20
2021/12/03 03:37:42;;;;;;;45.03;26.60;;;;;;;1.56;73.66;99356.50;5107872;28;20456;-21
2021/12/03 03:40:09;;;;;;;47.97;26.33;;;;;;;1.08;76.39;99359.31;5108183;28;20027;-21
2021/12/03 03:42:34;;;;;;;49.88;29.27;;;;;;;1.35;75.39;99352.75;5107825;28;20818;-21
2021/12/03 03:45:00;;;;;;;57.50;29.23;;;;;;;1.42;74.24;99329.19;5107508;28;20074;-21
2021/12/03 03:47:26;;;;;;;53.85;30.33;;;;;;;1.25;75.24;99356.59;5089686;28;20031;-21
2021/12/03 03:49:51;;;;;;;53.30;30.65;;;;;;;1.34;75.79;99348.47;5108007;28;20088;-21
2021/12/03 03:52:17;;;;;;;55.05;30.65;;;;;;;1.33;74.80;99359.19;5089340;28;20028;-21
2021/12/03 03:54:42;;;;;;;55.97;31.35;;;;;;;1.32;75.98;99354.91;5109565;28;20033;-21
2021/12/03 03:57:08;;;;;;;57.22;30.75;;;;;;;1.28;75.09;99322.09;5111790;28;20042;-20
2021/12/03 03:59:33;;;;;;;56.00;31.00;;;;;;;0.79;77.28;99333.75;5112106;28;20027;-20
2021/12/03 04:01:59;;;;;;;55.40;29.75;;;;;;;1.17;76.45;99374.06;5112182;28;20820;-20
2021/12/03 04:04:25;;;;;;;49.20;27.08;;;;;;;1.47;74.86;99347.91;5112194;28;20035;-20
2021/12/03 04:06:51;;;;;;;45.45;26.33;;;;;;;1.66;73.07;99324.72;5111825;28;20043;-20
2021/12/03 04:09:17;;;;;;;46.20;25.70;;;;;;;1.24;75.17;99334.75;5111851;28;20069;-20
2021/12/03 04:11:42;;;;;;;48.22;26.85;;;;;;;0.79;76.58;99347.69;5112050;28;20139;-20
2021/12/03 04:14:08;;;;;;;42.05;25.13;;;;;;;0.95;75.64;99338.09;5112009;28;20582;-20
2021/12/03 04:16:33;;;;;;;40.10;23.27;;;;;;;0.23;77.62;99354.88;5111881;28;20502;-21
2021/12/03 04:18:59;;;;;;;43.17;23.30;;;;;;;0.80;75.88;99362.47;5111687;28;20029;-20
2021/12/03 04:21:24;;;;;;;43.67;25.05;;;;;;;0.70;75.90;99350.56;5111415;28;20106;-20
2021/12/03 04:23:50;;;;;;;46.28;26.02;;;;;;;0.83;75.94;99350.00;5111615;28;20129;-20
2021/12/03 04:26:16;;;;;;;51.80;27.92;;;;;;;1.02;76.02;99362.66;5111701;28;20031;-20
2021/12/03 04:28:41;;;;;;;60.10;34.50;;;;;;;0.83;76.95;99363.13;5111196;28;20027;-20
2021/12/03 04:31:07;;;;;;;48.60;27.45;;;;;;;0.57;78.69;99377.34;5111498;28;20039;-20
2021/12/03 04:33:32;;;;;;;51.85;30.90;;;;;;;0.68;77.89;99378.78;5111525;28;20031;-20
2021/12/03 04:35:58;;;;;;;55.00;32.20;;;;;;;1.32;74.89;99375.91;5092686;28;20690;-21
2021/12/03 04:38:23;;;;;;;70.13;35.88;;;;;;;0.87;77.34;99361.78;5110585;28;20031;-21
2021/12/03 04:40:49;;;;;;;115.05;52.30;;;;;;;1.40;75.11;99389.81;5111351;28;20042;-20
2021/12/03 04:43:14;;;;;;;58.58;34.08;;;;;;;1.58;73.80;99379.00;5111034;28;20063;-20
2021/12/03 04:45:40;;;;;;;83.95;44.88;;;;;;;1.86;72.85;99388.94;5111147;28;20100;-20
2021/12/03 04:48:05;;;;;;;96.50;61.13;;;;;;;2.15;71.54;99382.06;5093154;28;20038;-20
2021/12/03 04:50:37;;;;;;;85.25;56.78;;;;;;;2.18;71.39;99384.31;5111019;28;20035;-20
2021/12/03 04:53:03;;;;;;;65.93;40.80;;;;;;;1.49;73.69;99385.31;5110706;28;20462;-21
2021/12/03 04:55:29;;;;;;;113.25;60.20;;;;;;;1.32;75.31;99381.16;5092576;28;20474;-21
2021/12/03 04:57:54;;;;;;;85.97;48.90;;;;;;;1.60;74.70;99348.09;5110643;28;20485;-21
2021/12/03 05:00:29;;;;;;;82.63;46.90;;;;;;;1.94;72.61;99357.31;5075824;28;20113;-20
2021/12/03 05:02:55;;;;;;;90.68;49.47;;;;;;;1.65;74.21;99365.13;5110814;28;20085;-21
2021/12/03 05:05:23;;;;;;;137.05;71.60;;;;;;;1.54;74.58;99363.75;5110223;28;20035;-21
2021/12/03 05:07:58;;;;;;;119.47;63.35;;;;;;;1.67;74.55;99374.47;5110832;28;20475;-21
2021/12/03 05:10:30;;;;;;;87.20;48.40;;;;;;;2.28;71.80;99371.72;5110889;28;20161;-24
2021/12/03 05:13:01;;;;;;;66.35;39.22;;;;;;;2.22;72.20;99377.72;5110896;28;20034;-21
2021/12/03 05:15:27;;;;;;;66.70;39.13;;;;;;;2.06;71.82;99368.16;5110660;28;20027;-20
2021/12/03 05:17:53;;;;;;;68.28;40.25;;;;;;;2.07;72.14;99337.44;5110863;28;20107;-21
2021/12/03 05:20:18;;;;;;;64.25;40.35;;;;;;;2.05;72.80;99355.22;5110758;28;20031;-20
2021/12/03 05:22:44;;;;;;;80.07;45.33;;;;;;;1.98;72.96;99352.47;5110355;28;20035;-21
2021/12/03 05:25:09;;;;;;;86.72;49.67;;;;;;;2.12;72.32;99345.59;5074893;28;20039;-21
2021/12/03 05:27:35;;;;;;;77.30;43.10;;;;;;;2.05;72.46;99374.44;5110481;28;20433;-21
2021/12/03 05:30:00;;;;;;;91.70;47.20;;;;;;;2.15;72.12;99361.03;5075186;28;20054;-20
2021/12/03 05:32:26;;;;;;;86.20;44.70;;;;;;;2.20;73.02;99382.34;5092116;28;20038;-20
2021/12/03 05:34:51;;;;;;;83.50;45.33;;;;;;;2.18;72.40;99371.19;5110422;28;20094;-21
2021/12/03 05:37:17;;;;;;;81.25;42.80;;;;;;;2.36;72.30;99374.25;5110047;28;20047;-21
2021/12/03 05:39:42;;;;;;;62.83;38.15;;;;;;;2.10;72.99;99376.53;5110340;28;20030;-20
2021/12/03 05:42:08;;;;;;;58.17;33.42;;;;;;;2.01;74.22;99381.06;5110028;28;20048;-21
2021/12/03 05:44:35;;;;;;;58.80;32.70;;;;;;;1.94;73.37;99367.81;5110160;28;20558;-21
2021/12/03 05:47:00;;;;;;;52.22;29.67;;;;;;;1.93;74.07;99381.94;5110201;28;20108;-21
2021/12/03 05:49:26;;;;;;;54.83;29.17;;;;;;;2.14;73.55;99391.75;5110177;28;20831;-20
2021/12/03 05:51:52;;;;;;;52.95;28.83;;;;;;;2.00;73.88;99385.50;5091656;28;20476;-20
2021/12/03 05:54:18;;;;;;;50.03;27.40;;;;;;;2.49;72.53;99402.56;5109862;28;20453;-20
2021/12/03 05:56:43;;;;;;;41.78;24.98;;;;;;;1.75;74.09;99381.47;5074916;28;20118;-21
2021/12/03 05:59:09;;;;;;;48.50;23.67;;;;;;;2.06;73.94;99419.97;5110056;28;20020;-21
2021/12/03 06:01:34;;;;;;;44.10;25.50;;;;;;;1.60;75.47;99405.91;5109631;28;20035;-25
2021/12/03 06:04:00;;;;;;;41.50;25.40;;;;;;;1.83;75.43;99394.53;5109612;28;20032;-20
2021/12/03 06:06:25;;;;;;;45.05;24.60;;;;;;;1.86;75.61;99386.31;5109825;28;20038;-20
2021/12/03 06:08:51;;;;;;;41.30;23.58;;;;;;;1.90;75.08;99403.38;5109401;28;20023;-20
2021/12/03 06:11:16;;;;;;;39.63;22.05;;;;;;;1.79;75.49;99391.44;5109338;28;20032;-20
2021/12/03 06:13:42;;;;;;;35.33;20.30;;;;;;;1.95;75.21;99392.31;5109395;28;20025;-21
2021/12/03 06:16:08;;;;;;;35.28;20.70;;;;;;;1.93;75.32;99389.84;5109456;28;20034;-21
2021/12/03 06:18:34;;;;;;;35.30;20.17;;;;;;;1.81;75.85;99391.28;5108744;28;20027;-20
2021/12/03 06:21:01;;;;;;;31.98;18.65;;;;;;;1.84;76.40;99406.72;5090900;28;20031;-22
2021/12/03 06:23:26;;;;;;;31.98;18.92;;;;;;;2.24;76.17;99406.47;5109220;28;20027;-20
2021/12/03 06:25:52;;;;;;;116.10;52.65;;;;;;;2.11;76.05;99413.19;5109425;28;20035;-21
2021/12/03 06:28:17;;;;;;;80.20;40.88;;;;;;;2.47;75.20;99414.25;5109445;28;20775;-20
2021/12/03 06:30:42;;;;;;;37.25;22.40;;;;;;;2.21;75.52;99423.44;5109064;28;20089;-20
2021/12/03 06:33:08;;;;;;;45.83;27.77;;;;;;;2.37;75.98;99422.44;5108839;28;20031;-20
2021/12/03 06:35:33;;;;;;;48.90;29.15;;;;;;;1.86;77.27;99415.22;5109307;28;20039;-21
2021/12/03 06:37:59;;;;;;;75.85;40.45;;;;;;;2.32;76.40;99427.44;5108911;28;20031;-20
2021/12/03 06:40:26;;;;;;;88.43;43.78;;;;;;;1.86;76.75;99404.72;5108966;28;20031;-20
2021/12/03 06:42:51;;;;;;;60.33;34.58;;;;;;;2.03;77.00;99430.84;5108764;28;20055;-21
2021/12/03 06:45:17;;;;;;;51.15;31.30;;;;;;;2.05;76.71;99408.63;5108624;28;20028;-20
2021/12/03 06:47:42;;;;;;;59.33;36.92;;;;;;;1.97;77.53;99422.66;5091000;28;20072;-20
2021/12/03 06:50:09;;;;;;;68.78;39.20;;;;;;;1.97;77.07;99422.66;5108560;28;20023;-20
2021/12/03 06:52:37;;;;;;;61.17;39.35;;;;;;;1.85;78.05;99426.72;5108730;28;20486;-20
2021/12/03 06:55:04;;;;;;;70.00;39.08;;;;;;;2.33;77.73;99437.78;5108703;28;20028;-20
2021/12/03 06:57:30;;;;;;;68.22;38.20;;;;;;;2.55;76.41;99414.97;5108584;28;20035;-21
2021/12/03 06:59:55;;;;;;;56.97;34.75;;;;;;;3.06;75.46;99424.72;5108690;28;20119;-20
2021/12/03 07:02:21;;;;;;;56.53;35.53;;;;;;;3.03;75.06;99438.28;5073697;28;20777;-20
2021/12/03 07:04:46;;;;;;;60.88;35.28;;;;;;;3.13;75.24;99436.16;5108604;28;20028;-20
2021/12/03 07:07:12;;;;;;;63.50;37.10;;;;;;;3.01;75.73;99435.81;5108322;28;20567;-21
2021/12/03 07:09:37;;;;;;;62.70;35.20;;;;;;;2.98;75.89;99430.09;5108562;28;20024;-21
2021/12/03 07:12:03;;;;;;;60.08;36.40;;;;;;;3.47;74.66;99418.84;5108634;28;20043;-21
2021/12/03 07:14:29;;;;;;;55.88;33.83;;;;;;;3.51;74.19;99433.28;5108232;28;20867;-20
2021/12/03 07:16:54;;;;;;;56.00;32.38;;;;;;;4.03;73.60;99449.78;5108313;28;20055;-20
2021/12/03 07:19:19;;;;;;;46.40;28.50;;;;;;;4.09;73.64;99459.56;5107725;28;20106;-20
2021/12/03 07:21:45;;;;;;;51.65;30.10;;;;;;;3.98;73.25;99429.25;5108161;28;20043;-20
2021/12/03 07:24:10;;;;;;;47.92;28.92;;;;;;;4.02;75.10;99446.31;5108451;28;20035;-20
2021/12/03 07:26:36;;;;;;;43.58;26.15;;;;;;;4.19;74.86;99454.75;5108153;28;20404;-20
2021/12/03 07:29:02;;;;;;;46.35;26.73;;;;;;;4.07;74.06;99439.66;5107709;28;20061;-21
2021/12/03 07:31:27;;;;;;;44.97;26.38;;;;;;;4.45;73.59;99465.69;5107927;28;20063;-20
2021/12/03 07:33:54;;;;;;;44.60;28.17;;;;;;;4.61;73.04;99462.72;5108720;28;20020;-21
2021/12/03 07:36:20;;;;;;;39.10;24.92;;;;;;;5.09;72.52;99485.72;5107905;28;20028;-21
2021/12/03 07:38:45;;;;;;;42.20;27.90;;;;;;;5.11;72.06;99510.94;5108192;28;20023;-20
2021/12/03 07:41:11;;;;;;;47.03;29.35;;;;;;;4.86;73.36;99488.66;5107845;28;20089;-20
2021/12/03 07:43:36;;;;;;;43.15;29.42;;;;;;;5.05;72.94;99498.53;5107968;28;20080;-21
2021/12/03 07:46:02;;;;;;;46.55;29.73;;;;;;;5.05;72.97;99490.59;5107870;28;20032;-21
2021/12/03 07:48:27;;;;;;;43.88;29.75;;;;;;;4.93;73.96;99484.25;5108084;28;20043;-21
2021/12/03 07:50:54;;;;;;;53.85;33.05;;;;;;;5.19;74.11;99500.22;5108022;28;20023;-20
2021/12/03 07:53:19;;;;;;;48.53;31.85;;;;;;;5.38;73.29;99501.28;5108069;28;20194;-20
2021/12/03 07:55:48;;;;;;;47.03;31.58;;;;;;;5.52;71.75;99474.88;5108057;28;20067;-20
2021/12/03 07:58:14;;;;;;;40.88;25.30;;;;;;;5.28;72.22;99494.75;5108063;28;20031;-20
2021/12/03 08:00:39;;;;;;;42.67;26.33;;;;;;;5.19;72.40;99486.16;5107560;28;20059;-20
2021/12/03 08:03:05;;;;;;;40.15;25.20;;;;;;;5.36;72.86;99481.34;5107547;28;20067;-20
2021/12/03 08:05:30;;;;;;;41.63;25.48;;;;;;;5.62;71.51;99492.00;5108455;28;20404;-20
2021/12/03 08:07:58;;;;;;;38.78;24.55;;;;;;;5.89;70.75;99480.63;5108000;28;20035;-20
2021/12/03 08:10:23;;;;;;;40.10;26.30;;;;;;;5.95;70.86;99496.53;5107901;28;20714;-21
2021/12/03 08:12:48;;;;;;;38.20;24.95;;;;;;;5.74;70.47;99480.81;5107685;28;20039;-21
2021/12/03 08:15:15;;;;;;;40.20;25.13;;;;;;;6.14;70.78;99486.16;5107634;28;20392;-20
2021/12/03 08:17:40;;;;;;;36.83;24.88;;;;;;;6.35;70.75;99490.41;5107629;28;20059;-21
2021/12/03 08:20:06;;;;;;;38.88;26.40;;;;;;;6.06;71.23;99465.19;5107666;28;20058;-20
2021/12/03 08:22:32;;;;;;;44.47;26.35;;;;;;;6.32;69.87;99490.84;5107630;28;20031;-20
2021/12/03 08:24:58;;;;;;;39.50;25.77;;;;;;;6.32;69.86;99478.41;5107992;28;20383;-20
2021/12/03 08:27:23;;;;;;;39.47;24.85;;;;;;;6.47;69.45;99490.63;5107279;28;20066;-20
2021/12/03 08:29:49;;;;;;;37.35;24.85;;;;;;;6.98;68.34;99497.84;5107490;28;20032;-20
2021/12/03 08:32:14;;;;;;;53.70;31.88;;;;;;;6.98;67.64;99495.19;5107502;28;20039;-21
2021/12/03 08:34:40;;;;;;;37.97;25.63;;;;;;;6.75;68.50;99500.97;5107460;28;20024;-21
2021/12/03 08:37:07;;;;;;;42.50;26.90;;;;;;;6.76;68.82;99487.50;5107598;28;20027;-20
2021/12/03 08:39:33;;;;;;;45.30;28.42;;;;;;;7.11;68.73;99489.84;5089407;28;20027;-20
2021/12/03 08:41:58;;;;;;;40.72;28.00;;;;;;;7.72;66.49;99483.16;5110778;28;20035;-20
2021/12/03 08:44:24;;;;;;;42.53;27.75;;;;;;;7.53;66.71;99492.88;5111257;28;20411;-20
2021/12/03 08:46:57;;;;;;;42.15;28.05;;;;;;;7.85;65.98;99476.97;5111389;28;20398;-21
2021/12/03 08:49:29;;;;;;;43.22;27.00;;;;;;;8.19;64.42;99474.84;5111050;28;20034;-21
2021/12/03 08:57:15;;;;;;;39.05;25.80;;;;;;;8.93;62.85;99461.66;5111043;28;20046;-20
2021/12/03 08:59:41;;;;;;;36.92;25.02;;;;;;;9.04;62.60;99466.25;5111034;28;20031;-20
2021/12/03 09:02:06;;;;;;;36.42;25.52;;;;;;;9.51;60.80;99450.47;5110895;28;20039;-20
2021/12/03 09:04:32;;;;;;;39.45;28.42;;;;;;;9.92;58.94;99456.81;5092541;28;20035;-20
2021/12/03 09:06:58;;;;;;;34.88;22.35;;;;;;;10.16;57.66;99484.31;5110703;28;20036;-20
2021/12/03 09:09:26;;;;;;;34.97;24.20;;;;;;;10.19;58.64;99461.72;5110425;28;20032;-20
2021/12/03 09:11:52;;;;;;;;;;;;;;;10.41;59.14;99444.13;5111289;28;20036;-21
2021/12/03 09:17:26;;;;;;;33.75;22.27;;;;;;;10.81;57.68;99442.59;5110582;28;20035;-21
2021/12/03 09:22:43;;;;;;;62.70;49.97;;;;;;;11.37;56.93;99437.53;5110635;28;20031;-20
2021/12/03 09:25:10;;;;;;;36.97;28.30;;;;;;;11.58;56.63;99410.09;5110320;28;20047;-20
2021/12/03 09:27:36;;;;;;;34.58;23.60;;;;;;;11.27;57.28;99436.28;5110241;28;20491;-21
2021/12/03 09:30:05;;;;;;;84.85;77.32;;;;;;;11.02;57.89;99411.78;5110424;28;20032;-20
2021/12/03 09:32:31;;;;;;;34.28;23.92;;;;;;;11.45;58.12;99418.44;5109171;28;20023;-20
2021/12/03 09:34:57;;;;;;;30.98;21.73;;;;;;;10.86;60.01;99427.47;5109717;28;20087;-20
2021/12/03 09:37:22;;;;;;;36.50;26.33;;;;;;;11.30;59.65;99412.81;5110104;28;20483;-20
2021/12/03 09:39:48;;;;;;;33.63;23.10;;;;;;;11.19;58.74;99419.84;5110299;28;20031;-21
2021/12/03 09:42:15;;;;;;;34.33;24.20;;;;;;;10.69;60.95;99413.28;5109823;28;20051;-21
2021/12/03 09:44:43;;;;;;;38.47;26.30;;;;;;;10.70;61.42;99404.22;5110057;28;20067;-21
2021/12/03 09:47:09;;;;;;;34.97;24.15;;;;;;;10.76;60.52;99408.59;5109712;28;20047;-20
2021/12/03 09:49:38;;;;;;;35.88;25.15;;;;;;;10.52;61.61;99396.38;5109750;28;20028;-21
2021/12/03 09:54:39;;;;;;;35.47;25.38;;;;;;;10.85;60.78;99401.88;5091606;28;20083;-20
2021/12/03 09:57:10;;;;;;;35.33;25.90;;;;;;;10.80;60.62;99393.75;5109483;28;20526;-20
2021/12/03 10:13:16;;;;;;;35.90;26.95;;;;;;;11.85;57.35;99369.44;5109558;28;20046;-20
2021/12/03 10:15:55;;;;;;;39.65;28.15;;;;;;;11.78;57.58;99360.75;5092386;28;20482;-21
2021/12/03 10:18:32;;;;;;;39.28;28.25;;;;;;;11.87;58.76;99383.34;5101189;28;20054;-22
2021/12/03 10:21:29;;;;;;;39.03;28.90;;;;;;;11.96;57.31;99362.41;5098657;28;20543;-22
2021/12/03 10:40:10;;;;;;;45.15;30.30;;;;;;;12.72;55.89;99353.75;5088679;28;20517;-20
2021/12/03 10:50:27;;;;;;;40.63;28.98;;;;;;;13.25;54.83;99355.63;5088244;28;20496;-20
2021/12/03 10:56:24;;;;;;;47.28;29.05;;;;;;;13.17;55.79;99340.03;5088454;28;20040;-20
2021/12/03 13:19:00;;;;;;;49.00;32.55;;;;;;;12.27;62.93;99281.56;5027511;28;20041;-20
2021/12/03 13:26:50;;;;;;;51.53;32.40;;;;;;;12.86;60.07;99253.28;5089566;28;20056;-20
2021/12/03 13:36:04;;;;;;;108.65;58.92;;;;;;;13.37;59.09;99287.75;5090198;28;20051;-20
2021/12/03 14:34:16;;;;;;;570.40;375.95;;;;;;;11.11;65.51;99252.91;5089010;28;20513;-20
2021/12/03 14:44:25;;;;;;;60.25;40.35;;;;;;;10.53;67.82;99270.03;5088313;28;20080;-20
2021/12/03 14:47:11;;;;;;;45.42;33.30;;;;;;;10.79;66.69;99252.66;5088754;28;20050;-20
2021/12/03 14:55:38;;;;;;;51.00;34.92;;;;;;;10.74;67.04;99272.03;5088534;28;20594;-20
2021/12/03 14:58:10;;;;;;;63.65;38.55;;;;;;;10.44;67.75;99269.59;5088540;28;20032;-20
2021/12/03 15:11:47;;;;;;;73.85;46.15;;;;;;;9.51;72.01;99280.13;5088141;28;20036;-21
2021/12/03 15:24:59;;;;;;;246.43;98.95;;;;;;;9.61;72.00;99282.22;5088125;28;20032;-20
2021/12/03 15:32:09;;;;;;;70.90;44.22;;;;;;;9.72;71.15;99299.25;5088001;28;20111;-20
2021/12/03 15:56:33;;;;;;;124.40;71.38;;;;;;;9.52;71.72;99297.75;5094213;28;20032;-20
2021/12/03 16:07:37;;;;;;;119.38;71.28;;;;;;;9.38;72.19;99312.31;5062335;28;20669;-20
2021/12/03 16:10:14;;;;;;;161.50;83.78;;;;;;;9.22;72.27;99329.75;5078858;28;20038;-20
2021/12/03 16:52:33;;;;;;;504.80;309.25;;;;;;;9.00;74.15;99353.38;5093946;28;20938;-20
2021/12/03 16:55:00;;;;;;;178.02;101.38;;;;;;;9.08;74.19;99345.06;5094238;28;20558;-21
2021/12/03 16:57:32;;;;;;;68.60;44.58;;;;;;;9.16;73.93;99331.44;5093715;28;20430;-21
2021/12/03 16:59:59;;;;;;;56.28;36.63;;;;;;;9.21;73.79;99334.25;5093708;28;20096;-20
2021/12/03 17:02:33;;;;;;;51.72;35.88;;;;;;;9.20;73.84;99353.09;5090164;28;20078;-20
2021/12/03 17:08:27;;;;;;;;;;;;;;;9.10;74.30;99350.97;5090979;28;20036;-20
2021/12/03 17:57:58;;;;;;;54.83;36.28;;;;;;;8.54;77.63;99391.97;5089499;28;20122;-20
2021/12/03 18:00:44;;;;;;;52.47;35.83;;;;;;;8.40;77.45;99365.53;5089790;28;20948;-20
2021/12/03 18:04:20;;;;;;;58.20;35.72;;;;;;;8.31;77.58;99371.38;5089000;28;20475;-20
2021/12/03 18:43:49;;;;;;;110.80;63.95;;;;;;;9.25;75.17;99367.34;5088745;28;20086;-20
2021/12/03 18:56:51;;;;;;;122.13;71.00;;;;;;;9.21;76.40;99413.22;5088507;28;20043;-20
2021/12/03 18:59:17;;;;;;;137.57;85.93;;;;;;;9.01;77.03;99409.00;5088246;28;20032;-20
2021/12/03 19:01:42;;;;;;;118.47;69.97;;;;;;;8.99;77.03;99416.41;5088408;28;20109;-21
2021/12/03 19:06:47;;;;;;;126.65;70.28;;;;;;;8.55;79.11;99404.25;5088303;28;20027;-21
2021/12/03 19:11:45;;;;;;;121.43;70.32;;;;;;;8.54;80.01;99405.25;5088143;28;20399;-20
2021/12/03 19:14:11;;;;;;;95.90;57.08;;;;;;;8.75;79.17;99393.38;5088027;28;20415;-20
2021/12/03 19:16:36;;;;;;;123.68;77.03;;;;;;;9.01;78.58;99392.22;5088124;28;20103;-20
2021/12/03 19:19:04;;;;;;;158.75;96.53;;;;;;;8.89;79.94;99400.16;5088053;28;20028;-20